Time;durP1;ratioP1;P1;durP2;ratioP2;P2;SDS_P1;SDS_P2;PMS_P1;PMS_P2;Temp;Humidity;BMP_temperature;BMP_pressure;BME280_temperature;BME280_humidity;BME280_pressure;Samples;Min_cycle;Max_cycle;Signal;HPM_P1;HPM_P2
2022/04/27 07:51:38;;;;;;;1.55;0.28;;;;;;;9.25;31.67;102612.56;5054354;28;20067;-78
2022/04/27 07:54:03;;;;;;;4.63;0.50;;;;;;;9.03;32.05;102611.88;5065400;28;20423;-79
2022/04/27 07:56:29;;;;;;;0.95;0.30;;;;;;;9.36;30.83;102615.13;5039766;28;20024;-77
2022/04/27 07:58:54;;;;;;;1.95;0.30;;;;;;;9.56;30.57;102610.59;5049654;28;20048;-77
2022/04/27 08:01:20;;;;;;;1.10;0.28;;;;;;;9.59;30.86;102609.75;5038444;28;20630;-78
2022/04/27 08:03:46;;;;;;;3.78;0.30;;;;;;;9.30;30.35;102618.66;5049994;28;20115;-79
2022/04/27 08:06:11;;;;;;;1.15;0.40;;;;;;;9.95;30.31;102621.63;5035167;28;20136;-79
2022/04/27 08:08:38;;;;;;;1.55;0.40;;;;;;;9.61;29.88;102623.66;5049603;28;20033;-78
2022/04/27 08:11:04;;;;;;;0.30;0.10;;;;;;;10.15;29.14;102618.81;5065127;28;20056;-79
2022/04/27 08:13:31;;;;;;;4.65;0.20;;;;;;;10.38;28.23;102629.00;5051142;28;20045;-79
2022/04/27 08:15:57;;;;;;;3.33;0.22;;;;;;;10.96;27.71;102632.69;5038691;28;20100;-78
2022/04/27 08:18:22;;;;;;;2.53;0.20;;;;;;;11.78;26.44;102634.97;5036323;28;20063;-79
2022/04/27 08:23:34;;;;;;;3.35;0.45;;;;;;;12.89;24.74;102631.09;5051070;28;20140;-78
2022/04/27 08:41:23;;;;;;;2.35;0.40;;;;;;;11.13;27.99;102645.56;5053447;28;20083;-78
2022/04/27 08:43:53;;;;;;;1.55;0.40;;;;;;;11.17;28.97;102652.47;5064865;28;20079;-77
2022/04/27 08:46:19;;;;;;;4.45;0.45;;;;;;;11.32;28.25;102646.13;5037035;28;20032;-78
2022/04/27 08:48:49;;;;;;;6.25;0.77;;;;;;;11.62;27.74;102647.41;5036698;28;20048;-77
2022/04/27 08:51:14;;;;;;;1.52;0.40;;;;;;;11.18;28.67;102653.34;5050949;28;20028;-78
2022/04/27 08:53:42;;;;;;;4.63;0.60;;;;;;;11.72;27.61;102661.22;5034057;28;20067;-77
2022/04/27 08:56:08;;;;;;;3.75;0.70;;;;;;;10.99;28.63;102656.19;5046488;28;20035;-77
2022/04/27 08:58:34;;;;;;;3.55;0.30;;;;;;;11.30;28.09;102658.38;5033382;28;20101;-77
2022/04/27 09:00:59;;;;;;;1.27;0.52;;;;;;;11.32;28.75;102655.75;5050422;28;20041;-77
2022/04/27 09:03:33;;;;;;;3.20;0.22;;;;;;;11.07;28.06;102650.84;5035838;28;20485;-78
2022/04/27 09:06:03;;;;;;;3.05;0.30;;;;;;;11.60;27.62;102657.06;5065675;28;20041;-79
2022/04/27 09:08:38;;;;;;;1.52;0.30;;;;;;;11.51;27.77;102656.31;5033924;28;20032;-78
2022/04/27 09:11:11;;;;;;;4.38;0.52;;;;;;;11.85;27.05;102652.28;5067107;28;20037;-77
2022/04/27 09:13:37;;;;;;;2.17;0.20;;;;;;;12.10;26.36;102657.09;5069265;28;20048;-78
2022/04/27 09:16:03;;;;;;;1.67;0.50;;;;;;;12.33;27.18;102658.44;5045537;28;20056;-78
2022/04/27 09:21:52;;;;;;;3.38;0.60;;;;;;;12.96;25.15;102660.69;5068522;28;20028;-77
2022/04/27 09:24:19;;;;;;;4.07;0.30;;;;;;;12.47;25.56;102656.44;5049041;28;20055;-76
2022/04/27 09:26:45;;;;;;;2.60;0.38;;;;;;;12.34;26.36;102654.94;5054009;28;20032;-77
2022/04/27 09:29:24;;;;;;;6.93;0.65;;;;;;;12.57;26.28;102662.34;5036771;28;20045;-78
2022/04/27 09:31:57;;;;;;;2.85;0.68;;;;;;;12.43;26.28;102666.09;5034626;28;20032;-77
2022/04/27 09:34:31;;;;;;;1.20;0.40;;;;;;;12.93;26.92;102654.63;5049938;28;20150;-78
2022/04/27 09:36:59;;;;;;;2.50;0.47;;;;;;;13.19;25.84;102651.44;5044802;28;20045;-78
2022/04/27 09:39:25;;;;;;;3.35;0.35;;;;;;;13.44;25.61;102657.81;5048469;28;20029;-77
2022/04/27 09:41:52;;;;;;;4.13;0.32;;;;;;;13.36;25.97;102651.03;5049794;28;20459;-78
2022/04/27 09:44:35;;;;;;;2.22;0.32;;;;;;;13.62;25.64;102650.44;5069069;28;20040;-78
2022/04/27 09:47:05;;;;;;;4.10;0.88;;;;;;;13.91;24.76;102652.34;5029045;28;20531;-78
2022/04/27 09:49:32;;;;;;;2.40;0.80;;;;;;;14.09;24.11;102651.84;5050095;28;20021;-76
2022/04/27 09:52:00;;;;;;;5.97;0.70;;;;;;;14.10;23.90;102660.63;5036194;28;20072;-77
2022/04/27 09:54:30;;;;;;;4.22;0.70;;;;;;;13.57;24.80;102652.34;5052545;28;20037;-77
2022/04/27 09:57:01;;;;;;;5.57;0.65;;;;;;;13.58;25.13;102659.28;5048204;28;20041;-79
2022/04/27 09:59:32;;;;;;;3.85;0.40;;;;;;;13.18;25.44;102660.19;5035195;28;20041;-78
2022/04/27 10:02:10;;;;;;;2.75;0.85;;;;;;;12.18;27.07;102663.09;5045036;28;20063;-77
2022/04/27 10:04:37;;;;;;;3.45;0.38;;;;;;;12.33;27.01;102663.69;5037467;28;20033;-78
2022/04/27 10:07:10;;;;;;;4.72;0.98;;;;;;;12.53;26.29;102665.91;5049355;28;20052;-77
2022/04/27 10:09:36;;;;;;;2.92;0.98;;;;;;;12.44;26.38;102651.22;5035847;28;20025;-78
2022/04/27 10:12:04;;;;;;;1.65;0.30;;;;;;;12.68;26.86;102660.38;5034209;28;20085;-77
2022/04/27 10:14:30;;;;;;;4.03;0.60;;;;;;;12.66;26.07;102656.91;5069563;28;20063;-79
2022/04/27 10:16:57;;;;;;;1.38;0.50;;;;;;;12.97;26.47;102659.78;5052468;28;20045;-76
2022/04/27 10:19:23;;;;;;;4.22;0.85;;;;;;;12.90;26.07;102658.19;5036109;28;20028;-76
2022/04/27 10:21:57;;;;;;;4.50;0.50;;;;;;;13.39;25.28;102656.22;5029645;28;20048;-77
2022/04/27 10:24:46;;;;;;;2.83;0.60;;;;;;;12.76;26.21;102660.22;5026663;28;20061;-76
2022/04/27 10:27:20;;;;;;;2.75;0.47;;;;;;;12.58;26.70;102657.06;5034456;28;20111;-77
2022/04/27 10:30:00;;;;;;;4.18;0.60;;;;;;;12.49;26.76;102665.09;5045393;28;20067;-78
2022/04/27 10:32:39;;;;;;;2.28;0.65;;;;;;;12.75;27.15;102658.50;5043104;28;20045;-78
2022/04/27 10:35:19;;;;;;;5.13;0.68;;;;;;;12.54;26.20;102667.66;5024654;28;20060;-77
2022/04/27 10:37:54;;;;;;;3.20;0.60;;;;;;;12.77;26.70;102660.19;5019373;28;20175;-77
2022/04/27 10:40:31;;;;;;;2.60;0.47;;;;;;;13.11;26.11;102659.47;5059556;28;20036;-78
2022/04/27 10:43:12;;;;;;;3.03;1.05;;;;;;;13.04;25.80;102656.13;5038721;28;20064;-77
2022/04/27 10:45:43;;;;;;;1.77;1.17;;;;;;;13.06;26.01;102658.72;5058663;28;20459;-78
2022/04/27 10:48:16;;;;;;;3.58;0.82;;;;;;;13.10;25.53;102658.63;5059514;28;20045;-80
2022/04/27 10:50:57;;;;;;;3.45;0.60;;;;;;;13.32;25.46;102658.13;5031063;28;20048;-77
2022/04/27 10:53:38;;;;;;;4.95;0.85;;;;;;;13.67;25.35;102654.69;5021600;28;20099;-80
2022/04/27 10:56:20;;;;;;;2.95;0.52;;;;;;;13.37;25.71;102661.50;5034951;28;20825;-78
2022/04/27 10:58:45;;;;;;;2.33;0.70;;;;;;;13.67;25.62;102666.94;5018575;28;20056;-80
2022/04/27 11:01:11;;;;;;;5.22;0.68;;;;;;;13.61;25.12;102672.38;5026120;28;20037;-79
2022/04/27 11:03:39;;;;;;;1.75;0.60;;;;;;;13.71;25.15;102676.50;5042035;28;20136;-80
2022/04/27 11:06:07;;;;;;;1.77;0.73;;;;;;;13.98;25.00;102667.03;5024255;28;20033;-78
2022/04/27 11:08:32;;;;;;;3.38;0.70;;;;;;;13.96;23.70;102675.88;5028793;28;20044;-79
2022/04/27 11:11:06;;;;;;;4.18;1.00;;;;;;;13.87;24.32;102677.81;5030603;28;20708;-80
2022/04/27 11:13:36;;;;;;;4.20;0.47;;;;;;;13.20;25.84;102674.16;5030671;28;20065;-78
2022/04/27 11:16:14;;;;;;;3.40;1.08;;;;;;;12.59;26.64;102671.91;5023052;28;20480;-80
2022/04/27 11:19:12;;;;;;;3.65;0.50;;;;;;;12.47;27.31;102675.66;5021399;28;20769;-80
2022/04/27 11:21:38;;;;;;;2.67;0.88;;;;;;;13.02;26.13;102676.28;5001375;28;20048;-77
2022/04/27 11:24:06;;;;;;;3.10;0.73;;;;;;;12.67;27.51;102670.00;5030015;28;20044;-80
2022/04/27 11:26:41;;;;;;;8.27;1.73;;;;;;;12.74;26.90;102676.03;5014769;28;20025;-78
2022/04/27 11:29:08;;;;;;;3.60;0.85;;;;;;;12.63;26.59;102678.81;5022011;28;20064;-78
2022/04/27 11:31:33;;;;;;;3.58;0.80;;;;;;;12.28;27.62;102672.50;5017893;28;20612;-77
2022/04/27 11:33:59;;;;;;;3.25;0.60;;;;;;;12.83;27.33;102669.72;5044048;28;20049;-78
2022/04/27 11:36:27;;;;;;;6.88;0.82;;;;;;;12.73;27.47;102676.91;5030668;28;20044;-79
2022/04/27 11:38:54;;;;;;;4.25;0.90;;;;;;;12.71;27.44;102670.81;5027497;28;20033;-77
2022/04/27 11:41:22;;;;;;;7.53;1.15;;;;;;;12.78;27.33;102674.19;5048871;28;20036;-78
2022/04/27 11:43:50;;;;;;;3.70;0.82;;;;;;;13.05;26.93;102665.75;5030632;28;20045;-77
2022/04/27 11:46:17;;;;;;;2.47;0.70;;;;;;;12.73;26.90;102678.66;5052681;28;20501;-78
2022/04/27 11:48:47;;;;;;;5.60;0.90;;;;;;;13.33;26.57;102667.72;5038490;28;20504;-79
2022/04/27 11:51:12;;;;;;;3.22;0.60;;;;;;;13.70;25.61;102677.41;5030703;28;20020;-78
2022/04/27 11:53:43;;;;;;;4.85;0.65;;;;;;;13.77;25.84;102680.75;5042225;28;20032;-76
2022/04/27 11:56:09;;;;;;;5.63;0.98;;;;;;;13.83;26.06;102678.81;5055178;28;20029;-79
2022/04/27 11:58:35;;;;;;;2.80;0.68;;;;;;;14.17;24.89;102674.47;5024384;28;20044;-81
2022/04/27 12:01:01;;;;;;;3.33;1.13;;;;;;;13.92;26.31;102681.22;5018626;28;20036;-79
2022/04/27 12:03:27;;;;;;;5.43;0.70;;;;;;;13.68;25.81;102681.84;5038015;28;20041;-79
2022/04/27 12:05:55;;;;;;;2.45;1.05;;;;;;;13.69;26.15;102686.16;5021763;28;20037;-79
2022/04/27 12:08:23;;;;;;;5.25;0.98;;;;;;;13.71;26.23;102689.63;5053847;28;20114;-80
2022/04/27 12:10:49;;;;;;;4.03;0.95;;;;;;;12.94;26.78;102690.47;5022760;28;20040;-78
2022/04/27 12:13:17;;;;;;;6.00;0.90;;;;;;;13.45;26.34;102685.84;5055324;28;20120;-79
2022/04/27 12:15:45;;;;;;;3.08;0.50;;;;;;;13.03;26.40;102690.28;5054180;28;20036;-79
2022/04/27 12:18:24;;;;;;;4.18;0.50;;;;;;;12.87;27.16;102693.25;5055841;28;20059;-78
2022/04/27 12:20:50;;;;;;;4.78;0.75;;;;;;;12.98;27.10;102689.50;5032290;28;20100;-78
2022/04/27 12:23:17;;;;;;;7.03;0.90;;;;;;;12.36;27.30;102695.09;5057615;28;20147;-78
2022/04/27 12:26:01;;;;;;;2.03;0.50;;;;;;;12.55;27.58;102691.22;5025805;28;20103;-80
2022/04/27 12:28:46;;;;;;;7.47;0.90;;;;;;;13.02;27.93;102685.94;5056319;28;20051;-79
2022/04/27 12:31:11;;;;;;;3.40;1.50;;;;;;;11.98;29.21;102694.03;5037723;28;20117;-78
2022/04/27 12:33:45;;;;;;;7.03;0.88;;;;;;;12.31;28.34;102697.78;5022744;28;20168;-76
2022/04/27 12:39:07;;;;;;;4.60;0.60;;;;;;;11.99;29.72;102696.59;5052482;28;20057;-83
2022/04/27 12:41:44;;;;;;;2.92;0.98;;;;;;;12.43;28.76;102701.97;5022677;28;20041;-80
2022/04/27 12:44:21;;;;;;;2.03;0.60;;;;;;;12.40;29.25;102700.25;5034805;28;20056;-75
2022/04/27 12:47:08;;;;;;;5.35;1.00;;;;;;;12.19;29.67;102709.38;5037454;28;20494;-81
2022/04/27 12:49:34;;;;;;;3.63;1.00;;;;;;;12.53;29.45;102707.88;5053237;28;20051;-79
2022/04/27 12:52:21;;;;;;;6.28;1.70;;;;;;;12.54;28.91;102699.13;5073193;28;20076;-80
2022/04/27 12:54:48;;;;;;;3.83;1.05;;;;;;;12.76;28.76;102700.47;5056720;28;20021;-78
2022/04/27 12:57:14;;;;;;;3.55;1.38;;;;;;;12.59;29.61;102702.53;5030316;28;20037;-77
2022/04/27 12:59:59;;;;;;;6.90;1.05;;;;;;;12.50;30.37;102696.56;5024946;28;20025;-76
2022/04/27 13:02:25;;;;;;;5.15;0.82;;;;;;;12.09;30.38;102702.56;5054357;28;20037;-79
2022/04/27 13:04:52;;;;;;;6.63;0.95;;;;;;;11.92;30.49;102700.22;5020146;28;20033;-80
2022/04/27 13:07:18;;;;;;;10.00;1.30;;;;;;;12.32;30.58;102698.66;5054915;28;20055;-80
2022/04/27 13:12:35;;;;;;;5.57;0.90;;;;;;;11.92;31.18;102699.38;5041299;28;20519;-80
2022/04/27 13:15:02;;;;;;;9.15;1.17;;;;;;;11.55;31.46;102690.28;5055324;28;20131;-78
2022/04/27 13:17:28;;;;;;;4.07;0.82;;;;;;;11.55;31.80;102692.91;5038840;28;20041;-80
2022/04/27 13:19:54;;;;;;;4.20;1.17;;;;;;;11.97;31.92;102693.13;5023707;28;20579;-78
2022/04/27 13:22:20;;;;;;;4.80;1.98;;;;;;;12.16;31.13;102693.69;5023603;28;20143;-80
2022/04/27 13:24:47;;;;;;;8.73;1.00;;;;;;;12.44;31.48;102682.69;5023995;28;20503;-78
2022/04/27 13:27:12;;;;;;;8.63;1.67;;;;;;;12.03;31.18;102692.19;5037138;28;20044;-81
2022/04/27 13:29:38;;;;;;;5.13;0.80;;;;;;;12.06;31.42;102695.59;5022859;28;20766;-80
2022/04/27 13:32:04;;;;;;;9.68;1.83;;;;;;;11.81;31.52;102687.28;5037420;28;20429;-78
2022/04/27 13:34:29;;;;;;;7.75;1.55;;;;;;;11.84;31.35;102692.50;5024996;28;20033;-77
2022/04/27 13:36:56;;;;;;;7.32;1.33;;;;;;;11.38;31.88;102687.06;5050656;28;20033;-80
2022/04/27 13:39:21;;;;;;;7.57;0.70;;;;;;;11.42;32.10;102687.00;5024731;28;20043;-80
2022/04/27 13:41:47;;;;;;;8.85;1.27;;;;;;;11.43;31.58;102686.09;5038990;28;20550;-79
2022/04/27 13:44:12;;;;;;;3.80;0.75;;;;;;;11.28;32.46;102686.31;5022717;28;20037;-79
2022/04/27 13:46:38;;;;;;;8.85;0.85;;;;;;;11.20;32.47;102696.91;5041539;28;20033;-80
2022/04/27 13:49:04;;;;;;;5.10;1.02;;;;;;;11.36;32.38;102694.94;5038820;28;20095;-80
2022/04/27 13:51:30;;;;;;;11.18;1.52;;;;;;;11.16;32.79;102691.75;5040531;28;20040;-77
2022/04/27 13:53:58;;;;;;;6.60;0.93;;;;;;;11.03;32.18;102694.50;5040277;28;20063;-77
2022/04/27 13:56:24;;;;;;;2.50;0.65;;;;;;;11.18;32.94;102696.06;5057445;28;20037;-77
2022/04/27 13:58:50;;;;;;;6.10;0.98;;;;;;;11.37;31.64;102693.19;5039277;28;20051;-76
2022/04/27 14:01:17;;;;;;;6.82;1.58;;;;;;;11.32;31.85;102698.50;5026818;28;20430;-78
2022/04/27 14:03:42;;;;;;;11.32;2.20;;;;;;;11.29;32.10;102697.69;5039015;28;20062;-80
2022/04/27 14:06:08;;;;;;;6.60;0.77;;;;;;;11.01;32.23;102704.13;5039881;28;20039;-79
2022/04/27 14:08:33;;;;;;;3.30;0.95;;;;;;;11.08;32.43;102704.91;5038332;28;20152;-78
2022/04/27 14:10:59;;;;;;;5.90;1.23;;;;;;;11.69;31.51;102703.19;5022697;28;20041;-78
2022/04/27 14:13:25;;;;;;;7.47;1.70;;;;;;;12.09;31.31;102699.94;5024822;28;20041;-79
2022/04/27 14:18:35;;;;;;;4.78;0.90;;;;;;;11.62;31.90;102696.28;5056715;28;20052;-80
2022/04/27 14:21:01;;;;;;;9.23;1.20;;;;;;;11.85;31.94;102693.38;5023470;28;20048;-78
2022/04/27 14:23:27;;;;;;;9.55;1.33;;;;;;;11.26;32.21;102682.84;5025203;28;20566;-79
2022/04/27 14:25:53;;;;;;;8.68;0.60;;;;;;;11.73;31.82;102683.03;5023155;28;20075;-77
2022/04/27 14:28:21;;;;;;;3.92;0.80;;;;;;;11.71;31.44;102684.81;5039048;28;20033;-77
2022/04/27 14:30:47;;;;;;;11.23;1.17;;;;;;;11.58;31.60;102678.91;5040217;28;20064;-77
2022/04/27 14:33:14;;;;;;;7.63;1.17;;;;;;;11.66;31.55;102688.41;5038907;28;20091;-76
2022/04/27 14:35:41;;;;;;;6.43;1.10;;;;;;;11.67;31.97;102687.50;5024746;28;20029;-78
2022/04/27 14:38:08;;;;;;;4.80;1.23;;;;;;;11.67;31.18;102684.00;5038885;28;20037;-78
2022/04/27 14:40:34;;;;;;;5.68;0.65;;;;;;;11.90;31.02;102686.28;5024144;28;20099;-77
2022/04/27 14:43:01;;;;;;;6.47;0.52;;;;;;;11.87;31.34;102681.97;5022251;28;20112;-78
2022/04/27 14:45:28;;;;;;;6.22;0.50;;;;;;;11.84;31.17;102686.38;5024389;28;20071;-80
2022/04/27 14:47:53;;;;;;;7.45;0.82;;;;;;;12.01;31.04;102684.34;5053187;28;20053;-77
2022/04/27 14:50:19;;;;;;;5.97;1.17;;;;;;;11.69;31.71;102687.47;5040736;28;20032;-79
2022/04/27 14:52:45;;;;;;;10.38;1.13;;;;;;;11.73;31.02;102696.13;5037714;28;20807;-79
2022/04/27 14:55:10;;;;;;;7.60;0.35;;;;;;;11.53;31.30;102686.84;5023013;28;20033;-79
2022/04/27 14:57:36;;;;;;;12.70;1.00;;;;;;;11.00;31.81;102681.47;5055257;28;20120;-78
2022/04/27 15:00:08;;;;;;;7.07;1.10;;;;;;;11.40;31.72;102687.94;5038117;28;20033;-77
2022/04/27 15:02:34;;;;;;;3.92;0.75;;;;;;;11.75;31.41;102686.50;5040028;28;20049;-76
2022/04/27 15:05:00;;;;;;;5.03;0.93;;;;;;;11.99;31.04;102685.25;5020426;28;20040;-77
2022/04/27 15:07:27;;;;;;;4.07;0.63;;;;;;;11.78;31.13;102679.50;5038797;28;20059;-77
2022/04/27 15:09:53;;;;;;;6.57;0.80;;;;;;;11.53;31.04;102683.34;5020984;28;20172;-79
2022/04/27 15:12:19;;;;;;;10.75;1.40;;;;;;;11.21;31.54;102685.53;5055996;28;20049;-79
2022/04/27 15:14:44;;;;;;;8.80;1.60;;;;;;;11.41;31.31;102693.13;5022098;28;20059;-79
2022/04/27 15:17:10;;;;;;;4.80;0.50;;;;;;;11.05;32.26;102690.13;5023975;28;20056;-78
2022/04/27 15:19:35;;;;;;;4.15;0.63;;;;;;;10.89;32.34;102687.75;5024371;28;20025;-77
2022/04/27 15:24:46;;;;;;;5.95;1.02;;;;;;;10.35;32.79;102699.63;5053367;28;20025;-78
2022/04/27 15:27:13;;;;;;;3.35;1.17;;;;;;;10.62;33.06;102690.63;5022242;28;20919;-79
2022/04/27 15:29:40;;;;;;;6.47;1.30;;;;;;;10.55;32.71;102703.78;5021768;28;20036;-78
2022/04/27 15:32:08;;;;;;;8.77;0.85;;;;;;;10.34;33.99;102691.78;5057595;28;20036;-78
2022/04/27 15:34:34;;;;;;;14.25;0.80;;;;;;;10.68;32.52;102702.75;5055050;28;20029;-76
2022/04/27 15:36:59;;;;;;;7.38;0.90;;;;;;;10.67;32.33;102702.78;5022359;28;20036;-78
2022/04/27 15:39:25;;;;;;;5.05;0.93;;;;;;;10.75;32.59;102701.81;5057448;28;20150;-78
2022/04/27 15:41:50;;;;;;;4.80;1.00;;;;;;;10.77;31.78;102699.16;5039780;28;20033;-80
2022/04/27 15:44:16;;;;;;;11.32;1.00;;;;;;;10.72;32.27;102703.59;5057436;28;20670;-80
2022/04/27 15:46:42;;;;;;;6.07;0.70;;;;;;;10.32;33.24;102711.84;5027128;28;20119;-76
2022/04/27 15:49:10;;;;;;;5.57;0.60;;;;;;;10.55;32.47;102703.78;5055878;28;20080;-79
2022/04/27 15:51:37;;;;;;;6.15;0.52;;;;;;;10.39;33.51;102697.81;5025571;28;20090;-78
2022/04/27 15:54:02;;;;;;;6.07;0.77;;;;;;;10.44;33.46;102690.84;5021920;28;20044;-77
2022/04/27 15:56:28;;;;;;;10.75;3.20;;;;;;;10.34;33.32;102697.03;5054746;28;20029;-78
2022/04/27 15:58:54;;;;;;;13.00;4.45;;;;;;;9.93;33.98;102704.34;5052747;28;20053;-77
2022/04/27 16:01:21;;;;;;;6.15;1.60;;;;;;;10.42;32.96;102697.81;5055045;28;20049;-78
2022/04/27 16:03:48;;;;;;;20.27;8.07;;;;;;;10.32;33.52;102704.00;5037831;28;20124;-77
2022/04/27 16:06:13;;;;;;;5.43;1.23;;;;;;;10.22;32.92;102701.47;5055807;28;20064;-78
2022/04/27 16:08:39;;;;;;;6.10;1.00;;;;;;;10.30;33.64;102705.75;5037832;28;20080;-78
2022/04/27 16:11:05;;;;;;;9.90;0.93;;;;;;;10.42;32.88;102703.03;5023925;28;20032;-78
2022/04/27 16:13:32;;;;;;;3.38;0.88;;;;;;;10.42;32.70;102700.44;5021969;28;20041;-81
2022/04/27 16:15:57;;;;;;;5.75;0.65;;;;;;;10.39;32.61;102706.56;5053852;28;20041;-80
2022/04/27 16:18:23;;;;;;;3.38;0.40;;;;;;;10.42;33.00;102710.88;5038729;28;20051;-77
2022/04/27 16:23:33;;;;;;;5.07;0.70;;;;;;;9.95;34.10;102712.19;5054410;28;20051;-77
2022/04/27 16:25:59;;;;;;;3.95;0.57;;;;;;;9.87;34.36;102713.97;5021441;28;20033;-78
2022/04/27 16:28:26;;;;;;;2.40;0.88;;;;;;;9.86;34.38;102712.25;5023356;28;20045;-77
2022/04/27 16:30:53;;;;;;;5.00;0.73;;;;;;;9.84;33.97;102714.03;5021371;28;20475;-77
2022/04/27 16:33:19;;;;;;;4.35;0.80;;;;;;;10.17;33.89;102708.50;5038747;28;20128;-79
2022/04/27 16:35:44;;;;;;;8.15;0.88;;;;;;;9.84;34.01;102711.41;5025462;28;20033;-79
2022/04/27 16:38:10;;;;;;;6.30;0.90;;;;;;;9.82;34.80;102710.56;5055587;28;20494;-77
2022/04/27 16:40:35;;;;;;;6.53;1.23;;;;;;;9.57;34.68;102714.16;5024486;28;20501;-79
2022/04/27 16:43:02;;;;;;;4.75;1.38;;;;;;;9.84;34.80;102716.63;5037640;28;20806;-79
2022/04/27 16:45:28;;;;;;;6.28;0.52;;;;;;;9.60;34.26;102723.72;5037576;28;20043;-79
2022/04/27 16:47:53;;;;;;;5.75;1.08;;;;;;;9.39;34.52;102722.97;5037564;28;20131;-78
2022/04/27 16:50:19;;;;;;;3.42;0.77;;;;;;;9.73;34.24;102725.38;5024924;28;20516;-77
2022/04/27 16:52:44;;;;;;;4.07;0.70;;;;;;;9.47;34.45;102724.66;5022955;28;20098;-79
2022/04/27 16:55:11;;;;;;;4.38;0.60;;;;;;;8.96;35.31;102727.50;5039554;28;20075;-78
2022/04/27 16:57:36;;;;;;;6.70;1.27;;;;;;;9.30;34.62;102728.25;5021306;28;20040;-78
2022/04/27 17:02:47;;;;;;;4.35;0.80;;;;;;;9.23;34.72;102730.88;5032623;28;20064;-77
2022/04/27 17:05:14;;;;;;;9.10;1.40;;;;;;;9.18;34.52;102734.38;5038226;28;20037;-78
2022/04/27 17:07:39;;;;;;;2.92;0.90;;;;;;;9.12;34.72;102728.31;5035196;28;20048;-80
2022/04/27 17:10:05;;;;;;;4.18;1.55;;;;;;;9.15;34.69;102723.09;5054505;28;20193;-80
2022/04/27 17:12:31;;;;;;;6.82;0.80;;;;;;;9.33;35.14;102737.78;5025310;28;20924;-80
2022/04/27 17:14:56;;;;;;;8.23;3.17;;;;;;;9.43;34.28;102742.06;5020580;28;20068;-81
2022/04/27 17:17:22;;;;;;;10.02;1.17;;;;;;;9.27;34.56;102733.47;5028801;28;20045;-77
2022/04/27 17:19:47;;;;;;;7.30;1.27;;;;;;;9.38;34.54;102741.25;5026299;28;20067;-80
2022/04/27 17:22:13;;;;;;;8.20;0.60;;;;;;;9.42;34.30;102731.66;5042290;28;20040;-77
2022/04/27 17:24:39;;;;;;;11.52;1.65;;;;;;;9.11;34.25;102737.03;5058342;28;20063;-76
2022/04/27 17:29:49;;;;;;;5.18;1.45;;;;;;;8.96;35.11;102741.44;5057035;28;20071;-76
2022/04/27 17:32:15;;;;;;;6.65;0.95;;;;;;;8.62;34.95;102750.16;5056288;28;20418;-77
2022/04/27 17:34:41;;;;;;;5.50;0.80;;;;;;;8.72;35.05;102754.53;5056835;28;20032;-79
2022/04/27 17:37:07;;;;;;;6.18;0.80;;;;;;;8.71;34.95;102752.78;5057124;28;20036;-76
2022/04/27 17:39:33;;;;;;;7.30;0.80;;;;;;;8.53;35.73;102759.72;5037253;28;20041;-75
2022/04/27 17:42:34;;;;;;;5.63;1.52;;;;;;;8.75;34.48;102760.59;5040192;28;20611;-77
2022/04/27 17:44:45;;;;;;;7.82;1.02;;;;;;;8.50;34.89;102757.13;5057319;28;20025;-77
2022/04/27 17:47:10;;;;;;;6.07;1.27;;;;;;;8.52;35.18;102763.22;5040075;28;20048;-77
2022/04/27 17:49:36;;;;;;;10.02;1.05;;;;;;;8.51;35.47;102761.47;5040944;28;20029;-77
2022/04/27 17:52:01;;;;;;;2.15;0.70;;;;;;;8.46;35.75;102760.63;5025022;28;20395;-78
2022/04/27 17:54:27;;;;;;;6.85;0.82;;;;;;;8.43;35.24;102763.22;5024463;28;20030;-75
2022/04/27 17:56:53;;;;;;;2.58;0.40;;;;;;;8.32;35.62;102764.97;5022030;28;21003;-78
2022/04/27 17:59:18;;;;;;;5.15;1.00;;;;;;;8.20;35.95;102762.34;5024681;28;20064;-76
2022/04/27 18:01:44;;;;;;;9.60;1.17;;;;;;;8.44;36.02;102767.56;5039845;28;20044;-79
2022/04/27 18:04:10;;;;;;;2.22;0.50;;;;;;;8.34;36.13;102773.66;5040147;28;20041;-78
2022/04/27 18:06:37;;;;;;;7.22;1.35;;;;;;;8.24;36.09;102769.31;5058365;28;20459;-79
2022/04/27 18:09:07;;;;;;;2.40;0.80;;;;;;;7.95;36.97;102773.63;5056948;28;20258;-78
2022/04/27 18:11:33;;;;;;;3.88;0.60;;;;;;;8.13;36.82;102775.38;5040806;28;20118;-80
2022/04/27 18:13:58;;;;;;;9.05;0.70;;;;;;;7.86;37.07;102775.34;5023089;28;20065;-78
2022/04/27 18:16:24;;;;;;;6.55;0.82;;;;;;;8.03;36.79;102778.84;5027932;28;20430;-79
2022/04/27 18:18:50;;;;;;;9.32;1.00;;;;;;;7.80;37.28;102780.53;5056445;28;20431;-76
2022/04/27 18:21:16;;;;;;;6.40;1.05;;;;;;;7.76;37.18;102789.19;5062326;28;20043;-77
2022/04/27 18:23:42;;;;;;;5.72;0.70;;;;;;;7.91;37.25;102789.25;5030808;28;20041;-76
2022/04/27 18:26:08;;;;;;;6.65;1.00;;;;;;;7.73;37.25;102795.28;5050387;28;20036;-80
2022/04/27 18:28:34;;;;;;;10.10;0.90;;;;;;;7.87;37.08;102795.28;5050549;28;20098;-77
2022/04/27 18:31:01;;;;;;;7.18;0.80;;;;;;;7.83;36.85;102796.19;5027491;28;20028;-76
2022/04/27 18:33:27;;;;;;;5.75;0.70;;;;;;;7.59;37.46;102787.44;5038275;28;20037;-77
2022/04/27 18:35:54;;;;;;;10.52;1.67;;;;;;;7.71;37.12;102792.69;5056313;28;20037;-77
2022/04/27 18:38:23;;;;;;;2.47;0.70;;;;;;;7.73;37.28;102790.97;5027313;28;20045;-76
2022/04/27 18:40:52;;;;;;;4.00;1.35;;;;;;;7.68;37.46;102797.88;5070113;28;20120;-78
2022/04/27 18:51:33;;;;;;;3.45;1.50;;;;;;;7.79;37.10;102804.84;5048270;28;20032;-78
2022/04/27 18:54:15;;;;;;;3.40;1.33;;;;;;;7.69;37.30;102810.03;5034059;28;20025;-75
2022/04/27 18:56:41;;;;;;;5.03;1.13;;;;;;;7.87;37.13;102819.63;5065170;28;20055;-79
2022/04/27 18:59:07;;;;;;;7.28;1.42;;;;;;;7.55;37.59;102822.13;5039507;28;20436;-77
2022/04/27 19:01:32;;;;;;;4.07;0.95;;;;;;;7.78;37.60;102816.09;5049702;28;20065;-76
2022/04/27 19:03:58;;;;;;;4.80;1.52;;;;;;;7.87;37.39;102810.91;5029893;28;20068;-80
2022/04/27 19:06:23;;;;;;;12.68;1.50;;;;;;;7.77;37.18;102819.59;5045991;28;20037;-77
2022/04/27 19:08:49;;;;;;;7.88;1.30;;;;;;;7.71;37.59;102823.03;5029259;28;20029;-77
2022/04/27 19:11:15;;;;;;;8.80;1.35;;;;;;;7.87;36.92;102823.94;5033085;28;20132;-77
2022/04/27 19:13:43;;;;;;;5.57;1.17;;;;;;;7.69;37.35;102824.75;5035932;28;20097;-78
2022/04/27 19:16:11;;;;;;;8.15;1.50;;;;;;;7.72;37.56;102828.25;5040283;28;20183;-78
2022/04/27 19:34:37;;;;;;;8.05;1.80;;;;;;;6.88;38.63;102833.00;5048620;28;20100;-77
2022/04/27 19:41:17;;;;;;;5.97;1.27;;;;;;;6.72;38.68;102832.00;5058366;28;20052;-75
2022/04/27 19:48:20;;;;;;;4.55;1.92;;;;;;;6.57;39.18;102844.88;5050952;28;20811;-78
2022/04/27 19:51:12;;;;;;;5.85;2.05;;;;;;;6.76;38.71;102841.59;5049114;28;20316;-77
2022/04/27 19:53:39;;;;;;;11.93;1.52;;;;;;;6.58;38.76;102849.25;5045501;28;20114;-79
2022/04/27 19:56:05;;;;;;;8.77;1.35;;;;;;;6.47;38.97;102844.81;5032803;28;20041;-78
2022/04/27 19:58:31;;;;;;;6.05;1.33;;;;;;;6.48;38.81;102849.16;5032496;28;20041;-79
2022/04/27 20:00:57;;;;;;;7.05;1.50;;;;;;;6.27;39.00;102846.31;5028276;28;20033;-77
2022/04/27 20:03:23;;;;;;;4.07;1.15;;;;;;;6.22;39.40;102845.44;5076856;28;20069;-78
2022/04/27 20:05:49;;;;;;;4.05;1.40;;;;;;;6.22;39.28;102840.22;5041493;28;20561;-78
2022/04/27 20:08:19;;;;;;;4.65;1.23;;;;;;;6.03;39.98;102846.94;5048912;28;20041;-78
2022/04/27 20:10:46;;;;;;;6.90;1.45;;;;;;;6.10;39.58;102851.34;5066782;28;20545;-78
2022/04/27 20:13:12;;;;;;;4.47;1.55;;;;;;;5.93;39.64;102847.72;5044348;28;20126;-77
2022/04/27 20:15:38;;;;;;;9.43;1.92;;;;;;;5.94;39.91;102849.44;5048198;28;20437;-77
2022/04/27 20:18:04;;;;;;;9.00;1.73;;;;;;;5.79;39.98;102860.50;5061382;28;20043;-77
2022/04/27 20:20:29;;;;;;;4.35;1.63;;;;;;;5.62;40.49;102863.78;5049142;28;20033;-79
2022/04/27 20:22:56;;;;;;;5.93;1.88;;;;;;;5.60;40.59;102859.44;5046395;28;20049;-77
2022/04/27 20:25:22;;;;;;;7.75;2.20;;;;;;;5.61;40.39;102856.88;5035306;28;20037;-78
2022/04/27 20:27:48;;;;;;;9.23;2.30;;;;;;;5.57;41.03;102854.19;5032052;28;20091;-77
2022/04/27 20:30:14;;;;;;;4.97;2.00;;;;;;;5.43;41.00;102864.38;5030391;28;20688;-77
2022/04/27 20:32:40;;;;;;;5.78;1.92;;;;;;;5.43;41.05;102856.59;5063668;28;20040;-80
2022/04/27 20:35:06;;;;;;;8.85;1.73;;;;;;;5.39;41.05;102865.19;5032946;28;20036;-78